createdAt,value
2023-02-17T00:02:18.705Z,43.70
2023-02-17T00:04:46.787Z,36.50
2023-02-17T00:07:14.763Z,41.50
2023-02-17T00:09:42.756Z,40.20
2023-02-17T00:12:10.897Z,52.70
2023-02-17T00:14:40.555Z,59.30
2023-02-17T00:17:08.732Z,63.40
2023-02-17T00:19:36.924Z,46.50
2023-02-17T00:22:05.033Z,48.80
2023-02-17T00:24:34.605Z,60.60
2023-02-17T00:27:02.827Z,46.50
2023-02-17T00:29:31.087Z,47.10
2023-02-17T00:32:00.373Z,57.70
2023-02-17T00:34:28.513Z,52.10
2023-02-17T00:36:56.525Z,52.70
2023-02-17T00:39:24.505Z,51.20
2023-02-17T00:41:52.461Z,51.90
2023-02-17T00:44:22.821Z,49.20
2023-02-17T00:46:53.254Z,47.10
2023-02-17T00:49:27.186Z,45.00
2023-02-17T00:51:55.584Z,49.60
2023-02-17T00:54:23.737Z,49.90
2023-02-17T00:56:52.289Z,49.60
2023-02-17T00:59:20.440Z,39.80
2023-02-17T01:01:48.786Z,50.90
2023-02-17T01:04:16.934Z,47.80
2023-02-17T01:06:47.767Z,44.40
2023-02-17T01:09:15.997Z,39.80
2023-02-17T01:11:44.447Z,38.10
2023-02-17T01:14:14.078Z,37.10
2023-02-17T01:16:46.915Z,45.60
2023-02-17T01:19:18.984Z,47.20
2023-02-17T01:21:49.992Z,54.00
2023-02-17T01:24:18.322Z,53.90
2023-02-17T01:26:46.672Z,50.20
2023-02-17T01:29:14.851Z,39.60
2023-02-17T01:31:46.128Z,43.10
2023-02-17T01:34:14.476Z,42.80
2023-02-17T01:36:42.713Z,41.50
2023-02-17T01:39:14.728Z,37.30
2023-02-17T01:41:43.658Z,34.60
2023-02-17T01:44:21.969Z,43.00
2023-02-17T01:46:55.520Z,67.10
2023-02-17T01:49:36.884Z,70.90
2023-02-17T01:52:13.832Z,61.00
2023-02-17T01:54:51.248Z,54.30
2023-02-17T01:57:23.718Z,57.20
2023-02-17T01:59:52.517Z,71.20
2023-02-17T02:02:21.399Z,84.30
2023-02-17T02:04:52.297Z,72.60
2023-02-17T02:07:28.702Z,62.60
2023-02-17T02:09:58.581Z,54.50
2023-02-17T02:12:26.791Z,61.40
2023-02-17T02:14:59.954Z,66.60
2023-02-17T02:17:54.333Z,50.60
2023-02-17T02:20:44.674Z,61.10
2023-02-17T02:23:16.061Z,59.00
2023-02-17T02:25:56.263Z,60.70
2023-02-17T02:29:02.031Z,48.70
2023-02-17T02:31:56.950Z,58.70
2023-02-17T02:34:35.632Z,55.10
2023-02-17T02:37:13.242Z,46.50
2023-02-17T02:39:47.315Z,48.70
2023-02-17T02:42:20.289Z,50.40
2023-02-17T02:44:49.326Z,52.90
2023-02-17T02:47:36.349Z,40.70
2023-02-17T02:50:05.346Z,38.70
2023-02-17T02:52:45.259Z,41.80
2023-02-17T02:55:20.078Z,38.20
2023-02-17T02:58:08.039Z,37.70
2023-02-17T03:00:41.420Z,42.30
2023-02-17T03:03:18.842Z,42.70
2023-02-17T03:06:17.000Z,42.60
2023-02-17T03:09:25.321Z,38.70
2023-02-17T03:11:56.569Z,38.70
2023-02-17T03:14:26.747Z,44.10
2023-02-17T03:16:55.593Z,36.70
2023-02-17T03:19:25.974Z,40.40
2023-02-17T03:22:12.912Z,43.70
2023-02-17T03:24:41.187Z,31.40
2023-02-17T03:27:09.541Z,43.60
2023-02-17T03:29:38.653Z,39.90
2023-02-17T03:32:07.535Z,35.80
2023-02-17T03:34:36.019Z,37.80
2023-02-17T03:37:04.303Z,41.60
2023-02-17T03:39:32.347Z,35.00
2023-02-17T03:42:00.452Z,34.90
2023-02-17T03:44:28.935Z,34.00
2023-02-17T03:46:56.978Z,33.90
2023-02-17T03:49:25.283Z,38.20
2023-02-17T03:51:53.348Z,35.60
2023-02-17T03:54:21.720Z,36.40
2023-02-17T03:56:49.900Z,32.80
2023-02-17T03:59:18.269Z,40.30
2023-02-17T04:01:46.450Z,36.40
2023-02-17T04:04:14.533Z,38.40
2023-02-17T04:06:42.712Z,33.90
2023-02-17T04:09:10.949Z,35.10
2023-02-17T04:11:39.024Z,39.90
2023-02-17T04:14:06.993Z,34.20
2023-02-17T04:16:35.079Z,38.10
2023-02-17T04:19:03.463Z,36.40
2023-02-17T04:21:31.714Z,37.50
2023-02-17T04:24:02.053Z,31.70
2023-02-17T04:26:31.038Z,37.20
2023-02-17T04:28:59.308Z,45.30
2023-02-17T04:31:28.405Z,37.70
2023-02-17T04:33:56.575Z,31.70
2023-02-17T04:36:25.375Z,35.00
2023-02-17T04:38:53.543Z,40.30
2023-02-17T04:41:21.722Z,32.70
2023-02-17T04:43:49.888Z,33.50
2023-02-17T04:46:17.964Z,44.40
2023-02-17T04:48:46.126Z,29.30
2023-02-17T04:51:14.093Z,41.10
2023-02-17T04:53:43.708Z,44.40
2023-02-17T04:56:11.778Z,52.90
2023-02-17T04:58:39.954Z,66.90
2023-02-17T05:01:08.142Z,59.00
2023-02-17T05:03:36.295Z,70.40
2023-02-17T05:06:05.241Z,77.70
2023-02-17T05:08:33.353Z,75.40
2023-02-17T05:11:01.420Z,65.20
2023-02-17T05:13:29.816Z,70.60
2023-02-17T05:15:57.932Z,51.40
2023-02-17T05:18:26.182Z,47.50
2023-02-17T05:20:54.226Z,52.00
2023-02-17T05:23:23.225Z,51.70
2023-02-17T05:25:51.596Z,53.80
2023-02-17T05:28:19.770Z,50.60
2023-02-17T05:30:51.018Z,51.60
2023-02-17T05:33:19.287Z,50.40
2023-02-17T05:35:47.357Z,44.20
2023-02-17T05:38:15.439Z,41.10
2023-02-17T05:40:43.300Z,47.50
2023-02-17T05:43:11.580Z,44.90
2023-02-17T05:45:39.964Z,48.50
2023-02-17T05:48:08.038Z,49.90
2023-02-17T05:50:36.200Z,53.00
2023-02-17T05:53:04.300Z,45.80
2023-02-17T05:55:32.345Z,44.30
2023-02-17T05:58:00.329Z,46.80
2023-02-17T06:00:28.897Z,53.00
2023-02-17T06:02:57.107Z,48.40
2023-02-17T06:05:25.324Z,54.80
2023-02-17T06:07:53.617Z,55.20
2023-02-17T06:10:21.898Z,56.60
2023-02-17T06:12:50.296Z,62.40
2023-02-17T06:15:18.397Z,56.00
2023-02-17T06:17:46.508Z,51.30
2023-02-17T06:20:15.129Z,46.10
2023-02-17T06:22:43.788Z,45.40
2023-02-17T06:25:11.975Z,49.50
2023-02-17T06:27:42.330Z,43.90
2023-02-17T06:30:11.623Z,52.40
2023-02-17T06:32:39.782Z,53.10
2023-02-17T06:35:08.232Z,54.60
2023-02-17T06:37:36.401Z,51.50
2023-02-17T06:40:05.519Z,49.70
2023-02-17T06:42:33.656Z,48.90
2023-02-17T06:45:05.652Z,53.80
2023-02-17T06:47:34.702Z,56.80
2023-02-17T06:50:03.223Z,56.40
2023-02-17T06:52:31.114Z,49.60
2023-02-17T06:54:59.240Z,55.80
2023-02-17T06:57:27.640Z,51.00
2023-02-17T06:59:55.685Z,55.70
2023-02-17T07:02:23.782Z,50.10
2023-02-17T07:04:52.028Z,55.60
2023-02-17T07:07:19.998Z,46.10
2023-02-17T07:09:48.170Z,51.30
2023-02-17T07:12:16.448Z,49.80
2023-02-17T07:14:44.415Z,53.00
2023-02-17T07:17:12.450Z,54.30
2023-02-17T07:19:40.504Z,47.90
2023-02-17T07:22:08.722Z,52.60
2023-02-17T07:24:37.040Z,45.20
2023-02-17T07:27:06.277Z,44.60
2023-02-17T07:29:34.834Z,46.50
2023-02-17T07:32:02.957Z,44.30
2023-02-17T07:34:31.262Z,47.00
2023-02-17T07:36:59.433Z,50.70
2023-02-17T07:39:27.608Z,48.70
2023-02-17T07:42:00.768Z,45.50
2023-02-17T07:44:28.687Z,52.60
2023-02-17T07:46:56.831Z,51.60
2023-02-17T07:49:25.177Z,52.50
2023-02-17T07:51:53.194Z,47.10
2023-02-17T07:54:21.527Z,47.40
2023-02-17T07:56:49.596Z,54.80
2023-02-17T07:59:17.979Z,48.10
2023-02-17T08:01:46.108Z,52.50
2023-02-17T08:04:15.582Z,53.90
2023-02-17T08:06:43.659Z,59.10
2023-02-17T08:09:30.632Z,50.60
2023-02-17T08:12:17.245Z,44.70
2023-02-17T08:14:45.340Z,50.90
2023-02-17T08:17:13.237Z,47.90
2023-02-17T08:19:49.229Z,56.60
2023-02-17T08:22:18.380Z,50.30
2023-02-17T08:24:47.023Z,52.50
2023-02-17T08:27:16.129Z,55.20
2023-02-17T08:29:45.342Z,72.30
2023-02-17T08:32:15.393Z,50.60
2023-02-17T08:34:43.912Z,53.10
2023-02-17T08:37:12.099Z,49.10
2023-02-17T08:39:40.037Z,46.70
2023-02-17T08:42:08.222Z,50.70
2023-02-17T08:44:36.911Z,47.80
2023-02-17T08:47:07.070Z,44.90
2023-02-17T08:49:36.023Z,46.20
2023-02-17T08:52:04.304Z,45.00
2023-02-17T08:54:32.610Z,45.50
2023-02-17T08:57:00.693Z,42.10
2023-02-17T08:59:28.830Z,44.00
2023-02-17T09:01:57.563Z,44.50
2023-02-17T09:04:26.103Z,52.50
2023-02-17T09:06:58.510Z,46.70
2023-02-17T09:09:27.758Z,43.80
2023-02-17T09:11:58.155Z,43.20
2023-02-17T09:14:27.339Z,41.30
2023-02-17T09:16:56.638Z,46.50
2023-02-17T09:19:25.325Z,41.20
2023-02-17T09:21:54.160Z,44.90
2023-02-17T09:24:22.230Z,45.40
2023-02-17T09:26:50.428Z,37.10
2023-02-17T09:29:18.625Z,36.30
2023-02-17T09:31:47.387Z,40.60
2023-02-17T09:34:16.011Z,40.20
2023-02-17T09:36:44.878Z,44.30
2023-02-17T09:39:14.497Z,40.80
2023-02-17T09:41:52.283Z,37.20
2023-02-17T09:44:28.075Z,49.20
2023-02-17T09:47:02.392Z,40.80
2023-02-17T09:49:47.723Z,48.60
2023-02-17T09:52:33.882Z,45.50
2023-02-17T09:55:07.499Z,55.80
2023-02-17T09:57:41.917Z,45.80
2023-02-17T10:00:16.336Z,44.40
2023-02-17T10:03:06.898Z,43.60
2023-02-17T10:05:52.077Z,42.90
2023-02-17T10:08:27.249Z,47.10
2023-02-17T10:11:02.140Z,46.30
2023-02-17T10:13:35.104Z,51.50
2023-02-17T10:16:12.161Z,52.40
2023-02-17T10:18:46.940Z,45.60
2023-02-17T10:21:24.244Z,49.10
2023-02-17T10:23:52.859Z,51.20
2023-02-17T10:26:29.860Z,49.70
2023-02-17T10:29:07.346Z,50.80
2023-02-17T10:31:35.442Z,47.60
2023-02-17T10:34:32.318Z,51.20
2023-02-17T10:37:03.330Z,51.10
2023-02-17T10:39:46.334Z,41.80
2023-02-17T10:42:31.585Z,43.10
2023-02-17T10:45:15.836Z,47.00
2023-02-17T10:47:44.499Z,45.30
2023-02-17T10:50:24.102Z,48.60
2023-02-17T10:52:53.408Z,47.70
2023-02-17T10:55:38.891Z,42.60
2023-02-17T10:58:29.367Z,43.50
2023-02-17T11:00:58.204Z,48.90
2023-02-17T11:03:29.237Z,44.30
2023-02-17T11:06:04.764Z,44.20
2023-02-17T11:08:54.267Z,42.20
2023-02-17T11:11:25.951Z,42.80
2023-02-17T11:14:18.300Z,44.40
2023-02-17T11:19:25.073Z,44.10
2023-02-17T11:21:55.677Z,44.50
2023-02-17T11:24:23.916Z,101.70
2023-02-17T11:27:00.518Z,46.60
2023-02-17T11:29:30.371Z,50.00
2023-02-17T11:32:08.957Z,40.40
2023-02-17T11:34:39.845Z,44.80
2023-02-17T11:37:13.931Z,43.70
2023-02-17T11:39:45.104Z,43.60
2023-02-17T11:42:16.991Z,36.80
2023-02-17T11:44:45.633Z,38.20
2023-02-17T11:47:38.096Z,39.20
2023-02-17T11:50:35.288Z,37.20
2023-02-17T11:53:32.503Z,35.20
2023-02-17T11:56:00.569Z,41.20
2023-02-17T11:58:31.893Z,31.40
2023-02-17T12:01:18.424Z,33.90
2023-02-17T12:04:00.979Z,34.80
2023-02-17T12:06:53.568Z,33.90
2023-02-17T12:09:21.856Z,28.30
2023-02-17T12:11:59.236Z,28.50
2023-02-17T12:14:47.384Z,30.50
2023-02-17T12:17:18.302Z,25.70
2023-02-17T12:20:17.438Z,30.30
2023-02-17T12:23:09.350Z,28.70
2023-02-17T12:25:50.943Z,30.30
2023-02-17T12:28:46.643Z,32.40
2023-02-17T12:31:20.740Z,26.60
2023-02-17T12:34:28.149Z,24.40
2023-02-17T12:36:58.780Z,20.70
2023-02-17T12:39:35.357Z,27.80
2023-02-17T12:42:37.429Z,27.90
2023-02-17T12:45:07.411Z,22.70
2023-02-17T12:47:55.381Z,23.20
2023-02-17T12:50:35.659Z,23.20
2023-02-17T12:53:11.799Z,21.70
2023-02-17T12:55:48.942Z,25.20
2023-02-17T12:58:23.625Z,24.50
2023-02-17T13:00:58.754Z,23.20
2023-02-17T13:03:31.098Z,22.10
2023-02-17T13:08:52.411Z,19.50
2023-02-17T13:11:35.361Z,24.20
2023-02-17T13:14:33.634Z,25.60
2023-02-17T13:17:01.713Z,30.00
2023-02-17T13:19:35.558Z,21.40
2023-02-17T13:22:05.799Z,25.20
2023-02-17T13:24:39.763Z,23.50
2023-02-17T13:27:34.229Z,22.20
2023-02-17T13:30:22.835Z,27.30
2023-02-17T13:33:06.015Z,23.40
2023-02-17T13:35:37.068Z,25.10
2023-02-17T13:38:05.232Z,25.20
2023-02-17T13:40:34.934Z,27.40
2023-02-17T13:43:24.305Z,27.20
2023-02-17T13:46:05.928Z,24.90
2023-02-17T13:48:36.126Z,29.10
2023-02-17T13:51:24.116Z,36.30
2023-02-17T13:53:52.225Z,41.90
2023-02-17T13:56:29.295Z,27.90
2023-02-17T13:59:20.211Z,23.10
2023-02-17T14:01:49.680Z,26.40
2023-02-17T14:04:22.744Z,28.70
2023-02-17T14:06:52.935Z,24.70
2023-02-17T14:09:24.329Z,27.60
2023-02-17T14:11:54.166Z,26.20
2023-02-17T14:14:26.453Z,25.20
2023-02-17T14:19:48.800Z,28.00
2023-02-17T14:22:29.368Z,32.80
2023-02-17T14:25:09.308Z,37.30
2023-02-17T14:27:48.870Z,38.40
2023-02-17T14:30:38.372Z,31.60
2023-02-17T14:33:17.475Z,33.20
2023-02-17T14:36:04.684Z,37.40
2023-02-17T14:38:37.394Z,37.40
2023-02-17T14:41:07.512Z,40.80
2023-02-17T14:43:36.293Z,41.10
2023-02-17T14:46:05.020Z,41.00
2023-02-17T14:48:33.298Z,42.90
2023-02-17T14:51:01.853Z,44.10
2023-02-17T14:53:34.199Z,45.10
2023-02-17T14:58:38.952Z,42.70
2023-02-17T15:01:07.210Z,43.40
2023-02-17T15:03:35.591Z,42.40
2023-02-17T15:06:03.774Z,48.10
2023-02-17T15:08:34.461Z,45.20
2023-02-17T15:11:03.087Z,40.40
2023-02-17T15:13:31.884Z,48.10
2023-02-17T15:16:00.375Z,46.70
2023-02-17T15:18:28.516Z,50.10
2023-02-17T15:20:57.186Z,42.30
2023-02-17T15:23:27.959Z,44.90
2023-02-17T15:25:56.851Z,46.30
2023-02-17T15:28:24.992Z,43.70
2023-02-17T15:30:56.018Z,103.60
2023-02-17T15:33:24.947Z,69.30
2023-02-17T15:35:54.831Z,51.10
2023-02-17T15:38:24.550Z,47.40
2023-02-17T15:40:56.825Z,47.90
2023-02-17T15:45:59.600Z,39.90
2023-02-17T15:48:30.346Z,48.60
2023-02-17T15:50:58.610Z,50.80
2023-02-17T15:53:29.160Z,44.60
2023-02-17T15:55:57.348Z,46.40
2023-02-17T15:58:25.476Z,45.40
2023-02-17T16:00:55.958Z,51.60
2023-02-17T16:03:24.148Z,58.40
2023-02-17T16:05:53.360Z,48.10
2023-02-17T16:08:21.556Z,46.40
2023-02-17T16:10:51.995Z,47.70
2023-02-17T16:13:20.452Z,50.90
2023-02-17T16:15:49.142Z,57.70
2023-02-17T16:18:22.643Z,46.60
2023-02-17T16:20:52.049Z,48.90
2023-02-17T16:23:20.424Z,48.30
2023-02-17T16:25:50.945Z,52.40
2023-02-17T16:28:21.294Z,43.40
2023-02-17T16:30:50.479Z,56.70
2023-02-17T16:33:18.787Z,41.00
2023-02-17T16:35:47.156Z,53.50
2023-02-17T16:38:23.939Z,46.90
2023-02-17T16:40:53.307Z,49.60
2023-02-17T16:43:26.869Z,42.70
2023-02-17T16:46:01.429Z,52.50
2023-02-17T16:48:31.958Z,51.00
2023-02-17T16:51:00.266Z,56.10
2023-02-17T16:53:28.551Z,49.00
2023-02-17T16:55:56.994Z,53.30
2023-02-17T16:58:27.425Z,48.70
2023-02-17T17:00:56.704Z,63.10
2023-02-17T17:03:25.033Z,53.50
2023-02-17T17:05:53.367Z,55.90
2023-02-17T17:08:22.260Z,58.50
2023-02-17T17:10:50.519Z,55.70
2023-02-17T17:13:18.652Z,48.80
2023-02-17T17:15:47.202Z,55.40
2023-02-17T17:18:21.288Z,50.00
2023-02-17T17:20:49.508Z,53.80
2023-02-17T17:23:19.015Z,53.30
2023-02-17T17:25:48.695Z,49.50
2023-02-17T17:28:19.003Z,46.90
2023-02-17T17:30:48.374Z,48.60
2023-02-17T17:33:16.676Z,41.80
2023-02-17T17:35:44.857Z,50.60
2023-02-17T17:38:16.421Z,51.90
2023-02-17T17:40:53.433Z,55.40
2023-02-17T17:43:23.685Z,54.70
2023-02-17T17:45:52.595Z,57.50
2023-02-17T17:48:20.668Z,67.70
2023-02-17T17:50:50.074Z,58.30
2023-02-17T17:53:18.455Z,64.70
2023-02-17T17:55:47.381Z,65.90
2023-02-17T17:58:17.285Z,59.60
2023-02-17T18:00:45.844Z,82.50
2023-02-17T18:03:13.814Z,83.60
2023-02-17T18:05:41.969Z,78.60
2023-02-17T18:08:10.097Z,62.40
2023-02-17T18:10:40.167Z,69.50
2023-02-17T18:13:10.542Z,63.10
2023-02-17T18:15:39.922Z,55.30
2023-02-17T18:18:08.150Z,57.50
2023-02-17T18:20:36.111Z,60.90
2023-02-17T18:23:04.426Z,54.20
2023-02-17T18:25:32.854Z,68.80
2023-02-17T18:28:00.914Z,60.00
2023-02-17T18:30:29.712Z,64.30
2023-02-17T18:32:57.921Z,63.10
2023-02-17T18:35:26.072Z,70.50
2023-02-17T18:37:54.285Z,55.40
2023-02-17T18:40:22.759Z,53.90
2023-02-17T18:42:50.916Z,54.30
2023-02-17T18:45:20.089Z,65.60
2023-02-17T18:47:48.664Z,56.60
2023-02-17T18:50:16.765Z,54.30
2023-02-17T18:52:44.927Z,57.30
2023-02-17T18:55:13.932Z,53.70
2023-02-17T18:57:44.957Z,55.60
2023-02-17T19:00:15.509Z,57.20
2023-02-17T19:02:44.080Z,55.70
2023-02-17T19:05:12.429Z,57.30
2023-02-17T19:07:40.728Z,59.60
2023-02-17T19:10:10.155Z,57.30
2023-02-17T19:12:38.421Z,55.80
2023-02-17T19:15:07.610Z,57.10
2023-02-17T19:17:35.809Z,54.40
2023-02-17T19:20:03.881Z,52.40
2023-02-17T19:22:36.508Z,60.00
2023-02-17T19:25:05.398Z,53.60
2023-02-17T19:27:33.462Z,60.80
2023-02-17T19:30:01.503Z,59.80
2023-02-17T19:32:29.620Z,54.40
2023-02-17T19:34:57.797Z,58.80
2023-02-17T19:37:25.774Z,60.10
2023-02-17T19:39:54.323Z,66.50
2023-02-17T19:42:22.723Z,69.90
2023-02-17T19:44:50.920Z,62.40
2023-02-17T19:47:19.483Z,62.70
2023-02-17T19:49:47.661Z,71.80
2023-02-17T19:52:15.633Z,64.80
2023-02-17T19:54:43.590Z,73.60
2023-02-17T19:57:14.485Z,69.50
2023-02-17T19:59:42.612Z,66.70
2023-02-17T20:02:17.239Z,72.60
2023-02-17T20:04:45.207Z,65.40
2023-02-17T20:07:13.481Z,67.10
2023-02-17T20:09:41.652Z,67.50
2023-02-17T20:12:09.723Z,70.40
2023-02-17T20:14:39.958Z,68.70
2023-02-17T20:17:08.616Z,66.50
2023-02-17T20:19:38.667Z,65.10
2023-02-17T20:22:08.683Z,61.50
2023-02-17T20:24:37.552Z,65.50
2023-02-17T20:27:05.720Z,71.10
2023-02-17T20:29:36.444Z,63.30
2023-02-17T20:32:04.718Z,77.50
2023-02-17T20:34:35.537Z,86.80
2023-02-17T20:37:03.968Z,83.00
2023-02-17T20:39:32.212Z,74.70
2023-02-17T20:42:00.455Z,69.90
2023-02-17T20:44:28.964Z,71.80
2023-02-17T20:46:57.674Z,70.50
2023-02-17T20:49:26.101Z,81.90
2023-02-17T20:51:54.345Z,82.60
2023-02-17T20:54:25.775Z,85.20
2023-02-17T20:56:54.077Z,73.70
2023-02-17T20:59:22.336Z,79.30
2023-02-17T21:01:50.667Z,72.10
2023-02-17T21:04:18.821Z,78.80
2023-02-17T21:06:48.098Z,73.70
2023-02-17T21:09:18.515Z,69.10
2023-02-17T21:11:47.822Z,69.70
2023-02-17T21:14:16.179Z,70.80
2023-02-17T21:16:45.148Z,76.30
2023-02-17T21:19:13.439Z,73.60
2023-02-17T21:21:41.506Z,75.70
2023-02-17T21:24:09.893Z,71.40
2023-02-17T21:26:38.355Z,69.90
2023-02-17T21:29:06.747Z,62.70
2023-02-17T21:31:37.229Z,68.70
2023-02-17T21:34:05.681Z,71.80
2023-02-17T21:36:33.919Z,80.40
2023-02-17T21:39:02.909Z,70.60
2023-02-17T21:41:32.616Z,63.00
2023-02-17T21:44:19.326Z,67.80
2023-02-17T21:46:47.600Z,76.20
2023-02-17T21:49:15.874Z,74.20
2023-02-17T21:51:43.938Z,86.60
2023-02-17T21:54:12.013Z,81.30
2023-02-17T21:56:40.400Z,85.40
2023-02-17T21:59:08.675Z,70.00
2023-02-17T22:01:37.348Z,83.50
2023-02-17T22:04:06.212Z,73.60
2023-02-17T22:06:37.296Z,79.20
2023-02-17T22:09:07.214Z,78.20
2023-02-17T22:11:39.121Z,73.90
2023-02-17T22:14:12.533Z,75.20
2023-02-17T22:16:41.161Z,74.00
2023-02-17T22:19:14.223Z,83.10
2023-02-17T22:21:42.802Z,80.90
2023-02-17T22:24:11.609Z,81.30
2023-02-17T22:26:39.969Z,82.90
2023-02-17T22:29:08.045Z,80.00
2023-02-17T22:31:36.458Z,81.20
2023-02-17T22:34:07.177Z,97.70
2023-02-17T22:36:37.093Z,94.90
2023-02-17T22:39:06.988Z,94.80
2023-02-17T22:41:36.258Z,97.50
2023-02-17T22:44:04.560Z,104.40
2023-02-17T22:46:33.448Z,83.90
2023-02-17T22:49:02.019Z,85.20
2023-02-17T22:51:34.199Z,89.80
2023-02-17T22:54:02.672Z,88.20
2023-02-17T22:56:32.230Z,87.10
2023-02-17T22:59:04.145Z,79.30
2023-02-17T23:01:34.992Z,83.30
2023-02-17T23:04:03.237Z,84.00
2023-02-17T23:06:35.178Z,81.20
2023-02-17T23:09:04.965Z,78.50
2023-02-17T23:11:51.283Z,85.80
2023-02-17T23:14:26.366Z,82.90
2023-02-17T23:16:59.009Z,82.70
2023-02-17T23:19:27.439Z,78.50
2023-02-17T23:21:59.334Z,73.80
2023-02-17T23:24:28.167Z,78.00
2023-02-17T23:26:57.503Z,81.40
2023-02-17T23:29:26.055Z,87.60
2023-02-17T23:31:54.586Z,83.40
2023-02-17T23:34:23.424Z,87.70
2023-02-17T23:36:51.809Z,76.80
2023-02-17T23:39:19.970Z,75.00
2023-02-17T23:41:48.262Z,74.20
2023-02-17T23:44:16.836Z,84.10
2023-02-17T23:46:45.825Z,82.70
2023-02-17T23:49:16.341Z,94.10
2023-02-17T23:51:47.047Z,90.20
2023-02-17T23:54:15.666Z,92.20
2023-02-17T23:56:44.457Z,96.50
2023-02-17T23:59:12.737Z,79.50
